Time;durP1;ratioP1;P1;durP2;ratioP2;P2;SDS_P1;SDS_P2;PMS_P1;PMS_P2;Temp;Humidity;BMP_temperature;BMP_pressure;BME280_temperature;BME280_humidity;BME280_pressure;Samples;Min_cycle;Max_cycle;Signal;HPM_P1;HPM_P2
2023/05/17 00:01:10;;;;;;;13.68;2.95;;;10.60;99.90;;;;;;4008267;29;20656;-95
2023/05/17 00:03:11;;;;;;;15.57;3.08;;;10.60;99.90;;;;;;4008381;29;20179;-93
2023/05/17 00:05:11;;;;;;;8.23;2.92;;;10.50;99.90;;;;;;4008052;29;20250;-90
2023/05/17 00:07:12;;;;;;;12.30;2.72;;;10.50;99.90;;;;;;3992786;29;20195;-93
2023/05/17 00:09:13;;;;;;;18.48;2.80;;;10.50;99.90;;;;;;4008086;29;20186;-91
2023/05/17 00:11:14;;;;;;;16.90;3.00;;;10.40;99.90;;;;;;4007970;29;20277;-92
2023/05/17 00:13:15;;;;;;;17.75;4.07;;;10.50;99.90;;;;;;4007810;29;20215;-91
2023/05/17 00:15:16;;;;;;;19.73;3.03;;;10.30;99.90;;;;;;4008017;29;20214;-90
2023/05/17 00:17:16;;;;;;;15.18;2.85;;;10.30;99.90;;;;;;4008141;29;20175;-91
2023/05/17 00:19:17;;;;;;;15.98;3.75;;;10.30;99.90;;;;;;4023382;29;20297;-90
2023/05/17 00:21:18;;;;;;;19.45;3.00;;;10.30;99.90;;;;;;4007837;29;20179;-91
2023/05/17 00:23:19;;;;;;;17.30;3.15;;;10.40;99.90;;;;;;3992768;29;20186;-92
2023/05/17 00:25:20;;;;;;;15.18;3.97;;;10.40;99.90;;;;;;4007970;29;20206;-90
2023/05/17 00:27:20;;;;;;;22.52;3.92;;;10.30;99.90;;;;;;3992589;29;20183;-93
2023/05/17 00:29:21;;;;;;;14.63;3.28;;;10.30;99.90;;;;;;3992768;29;20172;-93
2023/05/17 00:31:22;;;;;;;15.15;3.35;;;10.30;99.90;;;;;;4022841;29;20187;-94
2023/05/17 00:33:22;;;;;;;18.65;3.63;;;10.30;99.90;;;;;;4007743;29;20301;-92
2023/05/17 00:35:23;;;;;;;11.68;3.42;;;10.40;99.90;;;;;;4007934;29;20210;-93
2023/05/17 00:37:26;;;;;;;15.43;3.58;;;10.30;99.90;;;;;;4022841;29;20205;-93
2023/05/17 00:39:26;;;;;;;14.02;3.30;;;10.30;99.90;;;;;;4023241;29;20170;-93
2023/05/17 00:41:27;;;;;;;17.35;3.80;;;10.20;99.90;;;;;;4007095;29;20781;-90
2023/05/17 00:43:28;;;;;;;23.65;4.05;;;10.20;99.90;;;;;;4007723;29;20171;-93
2023/05/17 00:45:29;;;;;;;11.60;3.35;;;10.20;99.90;;;;;;4007710;29;20198;-91
2023/05/17 00:47:30;;;;;;;16.52;3.58;;;10.20;99.90;;;;;;3992316;29;20208;-91
2023/05/17 00:49:30;;;;;;;12.85;3.65;;;10.20;99.90;;;;;;4007314;29;20593;-93
2023/05/17 00:51:32;;;;;;;17.33;3.90;;;10.10;99.90;;;;;;4007530;29;20609;-94
2023/05/17 00:53:35;;;;;;;15.60;3.78;;;10.10;99.90;;;;;;4007920;29;20215;-93
2023/05/17 00:55:37;;;;;;;16.95;4.20;;;10.10;99.90;;;;;;4007675;29;20206;-94
2023/05/17 00:57:38;;;;;;;14.70;3.22;;;10.00;99.90;;;;;;3992870;29;20179;-90
2023/05/17 00:59:39;;;;;;;15.65;4.05;;;10.00;99.90;;;;;;4022996;29;20186;-93
2023/05/17 01:01:43;;;;;;;24.92;4.32;;;9.90;99.90;;;;;;4007119;29;20214;-92
2023/05/17 01:03:46;;;;;;;23.13;3.63;;;9.90;99.90;;;;;;4007745;29;20182;-93
2023/05/17 01:05:49;;;;;;;15.68;3.88;;;9.90;99.90;;;;;;3992294;29;20273;-92
2023/05/17 01:07:50;;;;;;;12.65;3.65;;;9.90;99.90;;;;;;4007308;29;20179;-93
2023/05/17 01:09:51;;;;;;;18.42;3.67;;;9.90;99.90;;;;;;4007161;29;20203;-93
2023/05/17 01:11:55;;;;;;;13.15;3.63;;;9.90;99.90;;;;;;4007383;29;20175;-91
2023/05/17 01:14:17;;;;;;;20.02;4.32;;;10.00;99.90;;;;;;4007458;29;20740;-93
2023/05/17 01:16:26;;;;;;;18.98;3.45;;;9.90;99.90;;;;;;3992240;29;20228;-92
2023/05/17 01:18:31;;;;;;;13.68;4.25;;;9.90;99.90;;;;;;4007112;29;20756;-90
2023/05/17 01:20:45;;;;;;;14.88;4.07;;;9.80;99.90;;;;;;4006746;29;20210;-91
2023/05/17 01:22:46;;;;;;;19.92;4.43;;;9.80;99.90;;;;;;4007354;29;20175;-93
2023/05/17 01:24:59;;;;;;;13.75;3.88;;;9.80;99.90;;;;;;4007200;29;20229;-93
2023/05/17 01:27:03;;;;;;;18.10;4.25;;;9.80;99.90;;;;;;4007409;29;20183;-90
2023/05/17 01:29:06;;;;;;;20.83;4.13;;;9.80;99.90;;;;;;3992149;29;20196;-92
2023/05/17 01:31:09;;;;;;;20.33;4.00;;;9.70;99.90;;;;;;4006855;29;20541;-93
2023/05/17 01:33:12;;;;;;;15.82;4.28;;;9.70;99.90;;;;;;3991818;29;20306;-92
2023/05/17 01:35:15;;;;;;;15.27;3.60;;;9.70;99.90;;;;;;4006688;29;20278;-92
2023/05/17 01:37:16;;;;;;;16.13;4.53;;;9.70;99.90;;;;;;4006936;29;20648;-93
2023/05/17 01:39:17;;;;;;;10.18;3.88;;;9.70;99.90;;;;;;4007195;29;20175;-92
2023/05/17 01:41:37;;;;;;;14.65;3.47;;;9.70;99.90;;;;;;4006721;29;20570;-93
2023/05/17 01:43:59;;;;;;;17.17;3.88;;;9.60;99.90;;;;;;4007001;29;20179;-93
2023/05/17 01:46:26;;;;;;;19.25;3.97;;;9.60;99.90;;;;;;4006778;29;20251;-90
2023/05/17 01:48:35;;;;;;;12.45;4.10;;;9.60;99.90;;;;;;3991572;29;20201;-95
2023/05/17 01:50:38;;;;;;;14.57;4.05;;;9.50;99.90;;;;;;3991312;29;20218;-94
2023/05/17 01:53:00;;;;;;;12.35;3.80;;;9.50;99.90;;;;;;4006605;29;20222;-91
2023/05/17 01:55:23;;;;;;;15.45;4.00;;;9.50;99.90;;;;;;4007055;29;20422;-91
2023/05/17 01:57:28;;;;;;;13.10;4.07;;;9.50;99.90;;;;;;4006197;29;20187;-94
2023/05/17 01:59:30;;;;;;;14.60;4.07;;;9.50;99.90;;;;;;4006751;29;20522;-93
2023/05/17 02:01:32;;;;;;;15.73;4.15;;;9.50;99.90;;;;;;4006971;29;20178;-93
2023/05/17 02:03:33;;;;;;;18.60;3.92;;;9.40;99.90;;;;;;4006921;29;20194;-90
2023/05/17 02:05:34;;;;;;;26.02;4.68;;;9.40;99.90;;;;;;4006640;29;20218;-91
2023/05/17 02:07:35;;;;;;;11.43;3.93;;;9.30;99.90;;;;;;3991529;29;20237;-91
2023/05/17 02:09:35;;;;;;;20.30;4.07;;;9.30;99.90;;;;;;4022228;29;20178;-95
2023/05/17 02:11:36;;;;;;;23.23;4.57;;;9.30;99.90;;;;;;3992019;29;20215;-92
2023/05/17 02:13:37;;;;;;;16.98;4.72;;;9.20;99.90;;;;;;4006207;29;20226;-90
2023/05/17 02:15:37;;;;;;;19.35;4.43;;;9.20;99.90;;;;;;3991404;29;20290;-90
2023/05/17 02:17:40;;;;;;;18.42;4.55;;;9.20;99.90;;;;;;4006622;29;20190;-91
2023/05/17 02:19:40;;;;;;;19.25;4.45;;;9.10;99.90;;;;;;4021736;29;20178;-93
2023/05/17 02:21:41;;;;;;;15.85;3.90;;;9.00;99.90;;;;;;3991083;29;20477;-93
2023/05/17 02:23:42;;;;;;;22.00;4.87;;;9.00;99.90;;;;;;3991341;29;20191;-91
2023/05/17 02:25:43;;;;;;;16.05;4.65;;;9.00;99.90;;;;;;3991401;29;20206;-91
2023/05/17 02:27:44;;;;;;;12.80;5.38;;;9.00;99.90;;;;;;4006574;29;20224;-90
2023/05/17 02:29:44;;;;;;;16.48;5.05;;;8.90;99.90;;;;;;3991449;29;20231;-95
2023/05/17 02:31:45;;;;;;;15.77;5.35;;;8.90;99.90;;;;;;3991721;29;20183;-91
2023/05/17 02:33:46;;;;;;;17.60;5.30;;;8.90;99.90;;;;;;3991327;29;20242;-91
2023/05/17 02:35:48;;;;;;;17.40;6.80;;;8.90;99.90;;;;;;3991615;29;20244;-90
2023/05/17 02:37:50;;;;;;;17.63;6.17;;;9.10;99.90;;;;;;4006650;29;20186;-91
2023/05/17 02:39:50;;;;;;;19.88;6.30;;;9.10;99.90;;;;;;4006606;29;20187;-92
2023/05/17 02:41:51;;;;;;;19.02;6.50;;;9.20;99.90;;;;;;3991776;29;20622;-90
2023/05/17 02:43:52;;;;;;;20.55;6.20;;;9.20;99.90;;;;;;4006451;29;20187;-91
2023/05/17 02:45:52;;;;;;;17.05;6.82;;;9.20;99.90;;;;;;3991049;29;20199;-91
2023/05/17 02:47:53;;;;;;;16.73;6.37;;;9.20;99.90;;;;;;4006429;29;20218;-91
2023/05/17 02:49:54;;;;;;;23.88;6.55;;;9.20;99.90;;;;;;3991516;29;20645;-92
2023/05/17 02:51:55;;;;;;;15.73;6.63;;;9.20;99.90;;;;;;4000857;29;20179;-92
2023/05/17 02:53:56;;;;;;;22.73;8.33;;;9.20;99.90;;;;;;4021538;29;20225;-94
2023/05/17 02:55:57;;;;;;;27.88;8.45;;;9.20;99.90;;;;;;3991452;29;20259;-93
2023/05/17 02:57:58;;;;;;;28.37;9.07;;;9.10;99.90;;;;;;4021182;29;20182;-93
2023/05/17 02:59:58;;;;;;;28.95;9.05;;;9.10;99.90;;;;;;3991177;29;20221;-93
2023/05/17 03:02:00;;;;;;;20.15;8.73;;;9.10;99.90;;;;;;4021503;29;20220;-95
2023/05/17 03:04:01;;;;;;;32.63;9.70;;;9.10;99.90;;;;;;4006573;29;20175;-94
2023/05/17 03:06:03;;;;;;;29.83;10.90;;;9.20;99.90;;;;;;4024355;29;20198;-91
2023/05/17 03:08:05;;;;;;;27.65;10.35;;;9.20;99.90;;;;;;4008645;29;20267;-93
2023/05/17 03:10:06;;;;;;;22.40;8.90;;;9.20;99.90;;;;;;4009049;29;20174;-90
2023/05/17 03:12:12;;;;;;;16.30;7.13;;;9.10;99.90;;;;;;3994586;29;20637;-93
2023/05/17 03:14:13;;;;;;;18.03;5.97;;;8.90;99.90;;;;;;4024403;29;20206;-93
2023/05/17 03:16:14;;;;;;;17.13;5.53;;;8.70;99.90;;;;;;3993888;29;20219;-93
2023/05/17 03:18:15;;;;;;;15.53;5.37;;;8.60;99.90;;;;;;4024154;29;20182;-94
2023/05/17 03:20:17;;;;;;;13.77;6.00;;;8.60;99.90;;;;;;4008938;29;20215;-91
2023/05/17 03:22:19;;;;;;;21.63;8.03;;;8.50;99.90;;;;;;4024202;29;20181;-90
2023/05/17 03:24:20;;;;;;;33.83;9.37;;;8.50;99.90;;;;;;4008823;29;20656;-90
2023/05/17 03:26:22;;;;;;;26.93;9.60;;;8.50;99.90;;;;;;4024220;29;20219;-92
2023/05/17 03:28:25;;;;;;;26.47;10.57;;;8.50;99.90;;;;;;4024178;29;20265;-94
2023/05/17 03:30:26;;;;;;;30.20;9.87;;;8.40;99.90;;;;;;3993664;29;20657;-91
2023/05/17 03:32:27;;;;;;;28.70;10.27;;;8.40;99.90;;;;;;4008749;29;20575;-93
2023/05/17 03:34:28;;;;;;;23.83;10.30;;;8.50;99.90;;;;;;3993537;29;20199;-91
2023/05/17 03:36:30;;;;;;;31.57;10.30;;;8.50;99.90;;;;;;4023914;29;20178;-91
2023/05/17 03:38:31;;;;;;;32.10;12.47;;;8.50;99.90;;;;;;3993004;29;20183;-94
2023/05/17 03:40:32;;;;;;;33.17;11.40;;;8.60;99.90;;;;;;4008322;29;20183;-92
2023/05/17 03:42:34;;;;;;;30.00;11.33;;;8.60;99.90;;;;;;4008383;29;20178;-92
2023/05/17 03:44:36;;;;;;;43.03;13.57;;;8.60;99.90;;;;;;3993120;29;20204;-91
2023/05/17 03:46:37;;;;;;;38.53;12.30;;;8.60;99.90;;;;;;4008244;29;20231;-91
2023/05/17 03:48:39;;;;;;;44.97;13.30;;;8.60;99.90;;;;;;3993307;29;20172;-93
2023/05/17 03:50:40;;;;;;;39.90;13.50;;;8.60;99.90;;;;;;4008261;29;20258;-94
2023/05/17 03:52:41;;;;;;;40.30;13.20;;;8.70;99.90;;;;;;3992968;29;20286;-91
2023/05/17 03:54:42;;;;;;;34.47;13.40;;;8.70;99.90;;;;;;4008275;29;20206;-91
2023/05/17 03:56:45;;;;;;;29.80;12.27;;;8.70;99.90;;;;;;4008372;29;20262;-93
2023/05/17 03:58:46;;;;;;;34.42;12.13;;;8.70;99.90;;;;;;4008630;29;20178;-95
2023/05/17 04:00:48;;;;;;;33.70;12.53;;;8.60;99.90;;;;;;4008126;29;20246;-93
2023/05/17 04:02:51;;;;;;;30.60;12.40;;;8.70;99.90;;;;;;4008364;29;20721;-90
2023/05/17 04:04:52;;;;;;;39.37;13.33;;;8.70;99.90;;;;;;4008172;29;20210;-92
2023/05/17 04:06:54;;;;;;;34.97;13.03;;;8.70;99.90;;;;;;4023294;29;20214;-91
2023/05/17 04:08:55;;;;;;;32.73;11.77;;;8.80;99.90;;;;;;3993219;29;20186;-93
2023/05/17 04:10:56;;;;;;;30.45;11.43;;;8.80;99.90;;;;;;4023378;29;20182;-91
2023/05/17 04:12:57;;;;;;;38.15;11.73;;;8.70;99.90;;;;;;4023425;29;20318;-90
2023/05/17 04:14:58;;;;;;;29.50;11.43;;;8.80;99.90;;;;;;3992591;29;20204;-92
2023/05/17 04:17:00;;;;;;;34.60;12.63;;;8.80;99.90;;;;;;4008101;29;20266;-91
2023/05/17 04:19:01;;;;;;;32.20;12.23;;;8.90;99.90;;;;;;4008244;29;20291;-91
2023/05/17 04:21:04;;;;;;;34.05;11.85;;;9.00;99.90;;;;;;4023567;29;20182;-93
2023/05/17 04:23:05;;;;;;;27.40;11.17;;;9.00;99.90;;;;;;3993010;29;20184;-92
2023/05/17 04:25:09;;;;;;;33.50;11.17;;;9.10;99.90;;;;;;4008238;29;20239;-92
2023/05/17 04:27:10;;;;;;;36.90;12.57;;;9.10;99.90;;;;;;3992886;29;20175;-90
2023/05/17 04:29:11;;;;;;;35.28;11.88;;;9.10;99.90;;;;;;4008176;29;20178;-93
2023/05/17 04:31:15;;;;;;;33.10;12.38;;;9.20;99.90;;;;;;3992903;29;20645;-92
2023/05/17 04:33:16;;;;;;;28.33;11.45;;;9.30;99.90;;;;;;3992492;29;20252;-95
2023/05/17 04:35:17;;;;;;;30.23;12.15;;;9.40;99.90;;;;;;4007363;29;20199;-91
2023/05/17 04:37:21;;;;;;;28.67;11.93;;;9.40;99.90;;;;;;3993115;29;20245;-91
2023/05/17 04:39:24;;;;;;;21.88;10.05;;;9.50;99.90;;;;;;4007779;29;20692;-91
2023/05/17 04:41:25;;;;;;;25.42;9.20;;;9.60;99.90;;;;;;4007550;29;20191;-93
2023/05/17 04:43:26;;;;;;;22.83;8.27;;;9.70;99.90;;;;;;4007766;29;20186;-91
2023/05/17 04:45:27;;;;;;;17.55;8.27;;;9.60;99.90;;;;;;4007624;29;20226;-95
2023/05/17 04:47:28;;;;;;;20.92;8.55;;;9.50;99.90;;;;;;3992850;29;20195;-90
2023/05/17 04:49:29;;;;;;;20.63;8.73;;;9.40;99.90;;;;;;4024214;29;20174;-91
2023/05/17 04:51:31;;;;;;;32.85;10.70;;;9.30;99.90;;;;;;4008048;29;20222;-90
2023/05/17 04:53:32;;;;;;;30.52;10.48;;;9.10;99.90;;;;;;4023330;29;20304;-90
2023/05/17 04:55:36;;;;;;;29.50;11.10;;;9.20;99.90;;;;;;3993309;29;20198;-94
2023/05/17 04:57:37;;;;;;;20.70;9.73;;;9.40;99.90;;;;;;4007414;29;20191;-93
2023/05/17 04:59:39;;;;;;;26.80;10.38;;;9.70;99.90;;;;;;4007466;29;20220;-90
2023/05/17 05:01:40;;;;;;;32.55;11.48;;;9.80;99.90;;;;;;4007116;29;20182;-93
2023/05/17 05:03:41;;;;;;;26.77;10.55;;;10.00;99.90;;;;;;3992549;29;20180;-94
2023/05/17 05:05:44;;;;;;;36.55;11.88;;;10.10;99.90;;;;;;4007355;29;20249;-91
2023/05/17 05:07:45;;;;;;;40.75;12.13;;;10.30;99.90;;;;;;3992522;29;20610;-90
2023/05/17 05:09:47;;;;;;;28.05;11.63;;;10.40;99.90;;;;;;4008230;29;20664;-90
2023/05/17 05:11:49;;;;;;;27.10;10.57;;;10.50;99.90;;;;;;4007482;29;20182;-90
2023/05/17 05:13:50;;;;;;;37.08;12.93;;;10.60;99.90;;;;;;4007283;29;20219;-90
2023/05/17 05:15:51;;;;;;;48.95;14.48;;;10.70;99.90;;;;;;4007216;29;20246;-89
2023/05/17 05:17:52;;;;;;;34.88;14.45;;;10.80;99.90;;;;;;3992338;29;20179;-90
2023/05/17 05:19:54;;;;;;;34.55;13.18;;;10.70;99.90;;;;;;4007530;29;20175;-94
2023/05/17 05:21:54;;;;;;;37.63;13.32;;;10.60;99.90;;;;;;4022405;29;20197;-90
2023/05/17 05:23:55;;;;;;;37.03;13.98;;;10.60;99.90;;;;;;4007485;29;20601;-91
2023/05/17 05:25:56;;;;;;;36.97;13.48;;;10.70;99.90;;;;;;4022427;29;20232;-90
2023/05/17 05:27:57;;;;;;;39.38;15.10;;;10.80;99.90;;;;;;3991727;29;20216;-94
2023/05/17 05:29:58;;;;;;;36.88;14.38;;;10.90;99.90;;;;;;3992520;29;20232;-90
2023/05/17 05:31:58;;;;;;;40.05;15.30;;;11.10;99.90;;;;;;3987573;29;20526;-91
2023/05/17 05:33:59;;;;;;;32.42;14.70;;;11.10;99.90;;;;;;3992331;29;20227;-96
2023/05/17 05:36:02;;;;;;;37.08;15.55;;;11.00;99.90;;;;;;4002782;29;20183;-90
2023/05/17 05:38:03;;;;;;;41.53;15.07;;;11.10;99.90;;;;;;4022544;29;20231;-91
2023/05/17 05:40:04;;;;;;;41.30;18.30;;;11.10;99.90;;;;;;3992165;29;20171;-90
2023/05/17 05:42:05;;;;;;;32.95;15.63;;;11.30;99.90;;;;;;4022399;29;20178;-90
2023/05/17 05:44:06;;;;;;;32.35;14.35;;;11.50;99.90;;;;;;4006872;29;20175;-91
2023/05/17 05:46:07;;;;;;;37.47;14.45;;;11.60;99.90;;;;;;3992370;29;20725;-94
2023/05/17 05:48:08;;;;;;;32.88;14.05;;;11.70;99.90;;;;;;3991897;29;20218;-91
2023/05/17 05:50:10;;;;;;;32.40;13.18;;;11.80;99.90;;;;;;4006837;29;20649;-91
2023/05/17 05:52:11;;;;;;;35.95;13.50;;;11.90;99.90;;;;;;3991916;29;20176;-92
2023/05/17 05:54:12;;;;;;;29.95;12.38;;;12.00;99.90;;;;;;4006873;29;20187;-90
2023/05/17 05:56:13;;;;;;;35.22;11.82;;;11.90;99.90;;;;;;3992093;29;20180;-90
2023/05/17 05:58:14;;;;;;;28.70;12.02;;;11.80;99.90;;;;;;4021908;29;20189;-92
2023/05/17 06:00:17;;;;;;;28.73;12.23;;;11.80;99.90;;;;;;4022037;29;20659;-91
2023/05/17 06:02:18;;;;;;;34.60;12.40;;;11.90;99.90;;;;;;4007060;29;20182;-96
2023/05/17 06:04:19;;;;;;;33.03;13.68;;;11.80;99.90;;;;;;4021842;29;20226;-95
2023/05/17 06:06:20;;;;;;;24.40;13.20;;;11.90;99.90;;;;;;3991618;29;20199;-91
2023/05/17 06:08:20;;;;;;;36.05;13.90;;;12.10;99.90;;;;;;4006654;29;20715;-96
2023/05/17 06:10:21;;;;;;;31.52;12.75;;;12.30;99.90;;;;;;4006641;29;20187;-92
2023/05/17 06:12:22;;;;;;;30.92;11.07;;;12.40;99.90;;;;;;4006704;29;20203;-92
2023/05/17 06:14:23;;;;;;;29.60;12.15;;;12.30;99.90;;;;;;3991739;29;20203;-94
2023/05/17 06:16:23;;;;;;;38.25;11.98;;;12.10;99.90;;;;;;4021884;29;20182;-93
2023/05/17 06:18:24;;;;;;;36.17;12.38;;;12.00;99.90;;;;;;4006771;29;20545;-92
2023/05/17 06:20:25;;;;;;;34.53;12.27;;;12.30;99.90;;;;;;3991796;29;20203;-91
2023/05/17 06:22:26;;;;;;;34.08;12.20;;;12.50;99.90;;;;;;4006728;29;20198;-90
2023/05/17 06:24:26;;;;;;;27.52;11.75;;;12.90;99.90;;;;;;4021775;29;20195;-91
2023/05/17 06:26:27;;;;;;;41.90;12.48;;;13.00;99.90;;;;;;4006793;29;20178;-91
2023/05/17 06:28:28;;;;;;;28.08;12.68;;;12.80;99.90;;;;;;4006957;29;20228;-92
2023/05/17 06:30:29;;;;;;;31.88;13.07;;;12.80;99.90;;;;;;4006763;29;20264;-94
2023/05/17 06:32:30;;;;;;;45.10;14.50;;;13.00;99.90;;;;;;4006830;29;20199;-90
2023/05/17 06:34:31;;;;;;;34.42;12.85;;;12.50;99.90;;;;;;4021889;29;20289;-91
2023/05/17 06:36:33;;;;;;;33.85;12.93;;;12.70;99.90;;;;;;3991849;29;20190;-90
2023/05/17 06:38:34;;;;;;;26.92;12.70;;;12.60;99.90;;;;;;4006785;29;20235;-92
2023/05/17 06:40:35;;;;;;;29.92;12.65;;;12.80;99.90;;;;;;4025132;29;20589;-90
2023/05/17 06:42:35;;;;;;;33.00;12.35;;;13.00;99.90;;;;;;3998174;29;20270;-91
2023/05/17 06:44:36;;;;;;;33.45;12.73;;;13.20;99.90;;;;;;4001748;29;20207;-90
2023/05/17 06:46:37;;;;;;;32.92;11.40;;;13.30;99.90;;;;;;3998597;29;20271;-93
2023/05/17 06:48:38;;;;;;;35.67;12.57;;;13.50;99.90;;;;;;4009398;29;20179;-91
2023/05/17 06:50:38;;;;;;;25.55;10.80;;;13.40;99.90;;;;;;3994254;29;20179;-91
2023/05/17 06:52:40;;;;;;;32.85;11.52;;;13.60;99.90;;;;;;3994212;29;20322;-94
2023/05/17 06:54:40;;;;;;;26.70;10.73;;;13.90;99.90;;;;;;4001951;29;20206;-94
2023/05/17 06:56:42;;;;;;;38.38;11.43;;;13.80;99.90;;;;;;4009163;29;20724;-90
2023/05/17 06:58:42;;;;;;;25.73;10.55;;;14.20;99.90;;;;;;4009384;29;20248;-91
2023/05/17 07:00:43;;;;;;;24.67;10.25;;;14.10;99.90;;;;;;4024497;29;20182;-90
2023/05/17 07:02:44;;;;;;;32.83;11.23;;;14.00;99.90;;;;;;3994529;29;20546;-93
2023/05/17 07:04:45;;;;;;;27.27;9.93;;;14.10;99.90;;;;;;4009360;29;20234;-90
2023/05/17 07:06:45;;;;;;;26.98;9.88;;;14.60;99.90;;;;;;4009116;29;20227;-95
2023/05/17 07:08:46;;;;;;;24.92;8.48;;;14.70;99.90;;;;;;3994033;29;20179;-90
2023/05/17 07:10:51;;;;;;;23.80;8.00;;;15.50;99.90;;;;;;3993943;29;20203;-93
2023/05/17 07:12:52;;;;;;;21.67;7.78;;;16.60;99.90;;;;;;4009226;29;20215;-90
2023/05/17 07:14:52;;;;;;;21.33;7.97;;;17.30;99.90;;;;;;4009222;29;20198;-93
2023/05/17 07:16:53;;;;;;;18.83;7.50;;;18.20;99.90;;;;;;3993916;29;20217;-89
2023/05/17 07:18:54;;;;;;;19.45;8.07;;;19.20;99.90;;;;;;4024392;29;20181;-94
2023/05/17 07:20:55;;;;;;;23.17;7.13;;;20.00;99.90;;;;;;4009032;29;20231;-90
2023/05/17 07:22:56;;;;;;;19.48;6.00;;;20.70;99.90;;;;;;4009230;29;20648;-90
2023/05/17 07:24:56;;;;;;;17.42;5.15;;;21.00;99.90;;;;;;4024169;29;20593;-91
2023/05/17 07:26:57;;;;;;;20.65;5.15;;;20.90;99.90;;;;;;3993838;29;20212;-90
2023/05/17 07:28:58;;;;;;;19.27;5.90;;;20.70;99.90;;;;;;3993850;29;20271;-94
2023/05/17 07:30:59;;;;;;;16.45;5.38;;;21.10;99.90;;;;;;3993842;29;20228;-93
2023/05/17 07:33:00;;;;;;;19.95;5.40;;;21.30;99.90;;;;;;3994147;29;20628;-92
2023/05/17 07:35:01;;;;;;;16.70;5.07;;;20.80;99.90;;;;;;3993690;29;20648;-90
2023/05/17 07:37:02;;;;;;;12.57;4.68;;;20.60;99.90;;;;;;4009039;29;20187;-90
2023/05/17 07:39:04;;;;;;;14.73;4.97;;;20.40;99.90;;;;;;4009207;29;20175;-90
2023/05/17 07:41:08;;;;;;;11.20;4.60;;;20.40;99.90;;;;;;3993771;29;20544;-90
2023/05/17 07:43:09;;;;;;;12.57;4.32;;;20.00;99.90;;;;;;4009154;29;20226;-96
2023/05/17 07:45:10;;;;;;;11.27;4.70;;;19.70;99.90;;;;;;4008775;29;20219;-90
2023/05/17 07:47:10;;;;;;;15.90;4.07;;;19.20;99.90;;;;;;4008843;29;20691;-90
2023/05/17 07:49:12;;;;;;;17.40;4.43;;;19.00;99.90;;;;;;4023665;29;20253;-91
2023/05/17 07:51:12;;;;;;;11.57;4.35;;;19.10;99.90;;;;;;4007894;29;20183;-90
2023/05/17 07:53:13;;;;;;;14.80;3.97;;;19.40;99.90;;;;;;4008433;29;20223;-89
2023/05/17 07:55:14;;;;;;;15.10;3.60;;;18.90;99.90;;;;;;4008384;29;20261;-90
2023/05/17 07:57:15;;;;;;;11.30;3.75;;;19.20;99.90;;;;;;4008570;29;20183;-90
2023/05/17 07:59:15;;;;;;;16.95;3.72;;;19.50;99.90;;;;;;4008680;29;20296;-90
2023/05/17 08:01:16;;;;;;;17.52;4.00;;;19.50;99.90;;;;;;4023802;29;20187;-91
2023/05/17 08:03:17;;;;;;;14.60;3.80;;;19.30;99.90;;;;;;4008809;29;20183;-90
2023/05/17 08:05:18;;;;;;;12.40;3.35;;;18.90;99.90;;;;;;3993403;29;20203;-91
2023/05/17 08:07:18;;;;;;;15.85;3.33;;;19.10;99.90;;;;;;3993255;29;20175;-90
2023/05/17 08:09:19;;;;;;;11.45;3.38;;;19.40;99.90;;;;;;4008579;29;20183;-89
2023/05/17 08:11:20;;;;;;;12.80;3.10;;;19.70;99.90;;;;;;3996762;29;20187;-90
2023/05/17 08:13:22;;;;;;;12.65;3.47;;;19.50;99.90;;;;;;4011792;29;20294;-90
2023/05/17 08:15:23;;;;;;;13.88;2.95;;;19.30;99.90;;;;;;3995970;29;20290;-89
2023/05/17 08:17:23;;;;;;;12.95;3.10;;;19.20;99.90;;;;;;4008806;29;20183;-89
2023/05/17 08:19:25;;;;;;;8.30;2.25;;;18.80;99.90;;;;;;3993279;29;20176;-91
2023/05/17 08:21:26;;;;;;;8.88;2.83;;;18.10;99.90;;;;;;3993021;29;20626;-94
2023/05/17 08:23:27;;;;;;;11.13;2.97;;;17.30;99.90;;;;;;4008399;29;20211;-91
2023/05/17 08:25:27;;;;;;;15.32;3.38;;;17.50;99.90;;;;;;3993003;29;20623;-95
2023/05/17 08:27:31;;;;;;;16.23;3.00;;;17.60;99.90;;;;;;4008297;29;20172;-92
2023/05/17 08:29:31;;;;;;;11.63;3.35;;;17.70;99.90;;;;;;4008480;29;20249;-89
2023/05/17 08:31:32;;;;;;;11.73;3.13;;;17.50;99.90;;;;;;4008446;29;20190;-90
2023/05/17 08:33:33;;;;;;;18.85;3.30;;;17.10;99.90;;;;;;3993052;29;20704;-89
2023/05/17 08:35:34;;;;;;;14.77;3.40;;;16.50;99.90;;;;;;4008170;29;20198;-90
2023/05/17 08:37:35;;;;;;;12.30;3.20;;;16.30;99.90;;;;;;4023380;29;20178;-89
2023/05/17 08:39:35;;;;;;;9.23;2.47;;;16.80;99.90;;;;;;3993055;29;20224;-94
2023/05/17 08:41:36;;;;;;;12.50;2.67;;;17.70;99.90;;;;;;4023349;29;20178;-90
2023/05/17 08:43:38;;;;;;;13.32;2.83;;;18.00;99.90;;;;;;4008200;29;20175;-94
2023/05/17 08:45:39;;;;;;;7.97;2.20;;;18.50;99.90;;;;;;3992470;29;20565;-90
2023/05/17 08:47:42;;;;;;;10.13;2.22;;;18.70;99.90;;;;;;4023418;29;20268;-95
2023/05/17 08:49:43;;;;;;;11.48;2.72;;;18.80;99.90;;;;;;4007723;29;20652;-89
2023/05/17 08:51:46;;;;;;;14.23;2.67;;;18.80;99.90;;;;;;4007715;29;20200;-93
2023/05/17 08:53:47;;;;;;;13.27;2.90;;;18.90;99.90;;;;;;3992854;29;20211;-89
2023/05/17 08:55:50;;;;;;;12.57;2.67;;;18.80;99.90;;;;;;4008094;29;20230;-95
2023/05/17 08:57:51;;;;;;;10.18;2.45;;;19.20;99.90;;;;;;3992667;29;20183;-91
2023/05/17 08:59:52;;;;;;;9.90;2.90;;;19.80;99.90;;;;;;3992776;29;20176;-90
2023/05/17 09:01:54;;;;;;;17.75;3.30;;;19.90;99.90;;;;;;3991992;29;20179;-90
2023/05/17 09:03:55;;;;;;;11.82;2.60;;;19.40;99.90;;;;;;3992336;29;20182;-90
2023/05/17 09:05:58;;;;;;;12.20;2.42;;;18.90;99.90;;;;;;4023013;29;20209;-90
2023/05/17 09:07:59;;;;;;;11.18;2.40;;;18.10;99.90;;;;;;4007748;29;20179;-90
2023/05/17 09:10:04;;;;;;;7.35;1.80;;;17.80;99.90;;;;;;4023162;29;20211;-90
2023/05/17 09:12:05;;;;;;;8.25;2.30;;;17.80;99.90;;;;;;4002865;29;20171;-91
2023/05/17 09:14:06;;;;;;;9.85;2.08;;;17.40;99.90;;;;;;4020612;29;20222;-93
2023/05/17 09:16:13;;;;;;;9.07;2.35;;;18.00;99.90;;;;;;4007518;29;20163;-90
2023/05/17 09:18:15;;;;;;;9.20;2.22;;;18.30;99.90;;;;;;4007697;29;20190;-90
2023/05/17 09:20:23;;;;;;;11.10;2.33;;;18.50;99.90;;;;;;4007957;29;20185;-89
2023/05/17 09:22:23;;;;;;;10.05;2.20;;;17.90;99.90;;;;;;4007398;29;20175;-95
2023/05/17 09:24:31;;;;;;;11.25;2.65;;;17.70;99.90;;;;;;4007108;29;20739;-90
2023/05/17 09:26:43;;;;;;;10.23;2.60;;;18.00;99.90;;;;;;3992284;29;20174;-91
2023/05/17 09:28:44;;;;;;;8.57;2.30;;;18.00;99.90;;;;;;4007169;29;20205;-91
2023/05/17 09:30:48;;;;;;;8.65;2.30;;;18.90;99.90;;;;;;4007613;29;20191;-90
2023/05/17 09:32:48;;;;;;;11.55;2.60;;;19.40;99.90;;;;;;4022755;29;20249;-90
2023/05/17 09:34:52;;;;;;;11.15;2.00;;;20.10;99.90;;;;;;4007697;29;20256;-90
2023/05/17 09:36:53;;;;;;;10.27;1.98;;;20.00;99.90;;;;;;3993135;29;20275;-91
2023/05/17 09:39:00;;;;;;;10.07;2.10;;;19.90;99.90;;;;;;4023118;29;20178;-90
2023/05/17 09:41:02;;;;;;;11.07;3.10;;;19.10;99.90;;;;;;4007397;29;20191;-90
2023/05/17 09:43:03;;;;;;;13.30;2.33;;;18.30;99.90;;;;;;4007263;29;20249;-90
2023/05/17 09:45:04;;;;;;;7.18;1.95;;;17.80;99.90;;;;;;4022686;29;20289;-95
2023/05/17 09:47:05;;;;;;;12.60;2.22;;;17.50;99.90;;;;;;4007809;29;20199;-93
2023/05/17 09:49:08;;;;;;;9.55;2.50;;;17.70;99.90;;;;;;3992267;29;20194;-91
2023/05/17 09:51:08;;;;;;;6.93;2.38;;;18.30;99.90;;;;;;4007261;29;20183;-90
2023/05/17 09:53:31;;;;;;;17.75;4.15;;;18.50;99.90;;;;;;4007195;29;20228;-90
2023/05/17 09:55:32;;;;;;;10.48;2.03;;;18.40;99.90;;;;;;4007921;29;20199;-92
2023/05/17 09:57:39;;;;;;;12.77;2.10;;;18.40;99.90;;;;;;4007637;29;20255;-91
2023/05/17 09:59:41;;;;;;;7.03;1.88;;;18.50;99.90;;;;;;4007975;29;20198;-91
2023/05/17 10:01:43;;;;;;;14.35;2.65;;;18.30;99.90;;;;;;4007868;29;20179;-92
2023/05/17 10:03:44;;;;;;;9.70;1.77;;;18.40;99.90;;;;;;4007686;29;20186;-90
2023/05/17 10:05:46;;;;;;;15.30;2.55;;;18.30;99.90;;;;;;4006785;29;20658;-91
2023/05/17 10:07:49;;;;;;;10.25;2.30;;;18.10;99.90;;;;;;4007163;29;20598;-94
2023/05/17 10:09:51;;;;;;;8.65;1.95;;;18.40;99.90;;;;;;3992716;29;20228;-91
2023/05/17 10:11:53;;;;;;;9.30;1.92;;;18.50;99.90;;;;;;3992576;29;20179;-95
2023/05/17 10:14:04;;;;;;;7.45;1.88;;;18.60;99.90;;;;;;4007660;29;20210;-90
2023/05/17 10:16:05;;;;;;;10.93;2.38;;;18.90;99.90;;;;;;4006866;29;20621;-90
2023/05/17 10:18:08;;;;;;;15.52;1.70;;;19.20;99.90;;;;;;3992319;29;20187;-90
2023/05/17 10:20:10;;;;;;;9.82;2.20;;;19.00;99.90;;;;;;4007232;29;20228;-90
2023/05/17 10:22:12;;;;;;;11.50;2.08;;;18.60;99.90;;;;;;4008061;29;20298;-91
2023/05/17 10:24:13;;;;;;;8.13;1.70;;;17.80;99.90;;;;;;3992328;29;20211;-91
2023/05/17 10:26:15;;;;;;;10.57;1.60;;;17.40;99.90;;;;;;4008116;29;20174;-91
2023/05/17 10:28:17;;;;;;;11.60;2.08;;;17.10;99.90;;;;;;4007954;29;20197;-94